createdAt,value
2018-07-20T00:00:42.197Z,22.30
2018-07-20T00:03:12.315Z,22.30
2018-07-20T00:05:43.993Z,22.20
2018-07-20T00:08:14.758Z,22.20
2018-07-20T00:10:45.086Z,22.20
2018-07-20T00:13:15.279Z,22.10
2018-07-20T00:15:45.469Z,22.00
2018-07-20T00:18:15.352Z,21.90
2018-07-20T00:23:13.297Z,21.90
2018-07-20T00:25:43.214Z,21.80
2018-07-20T00:28:12.145Z,21.70
2018-07-20T00:30:45.257Z,21.70
2018-07-20T00:33:15.226Z,21.70
2018-07-20T00:35:56.419Z,21.60
2018-07-20T00:38:41.218Z,21.60
2018-07-20T00:41:36.167Z,21.50
2018-07-20T00:44:07.004Z,21.50
2018-07-20T00:46:39.599Z,21.50
2018-07-20T00:49:08.598Z,21.60
2018-07-20T00:51:46.745Z,21.60
2018-07-20T00:54:16.244Z,21.60
2018-07-20T00:56:47.524Z,21.60
2018-07-20T00:59:19.738Z,21.60
2018-07-20T01:01:49.912Z,21.60
2018-07-20T01:04:19.303Z,21.50
2018-07-20T01:06:48.418Z,21.40
2018-07-20T01:09:19.472Z,21.30
2018-07-20T01:11:49.724Z,21.20
2018-07-20T01:14:19.079Z,21.20
2018-07-20T01:16:48.642Z,21.10
2018-07-20T01:19:18.197Z,21.00
2018-07-20T01:21:47.433Z,21.00
2018-07-20T01:24:17.320Z,20.90
2018-07-20T01:26:51.120Z,20.90
2018-07-20T01:29:32.859Z,20.90
2018-07-20T01:32:03.256Z,20.80
2018-07-20T01:34:32.258Z,20.80
2018-07-20T01:37:02.737Z,20.80
2018-07-20T01:39:32.518Z,20.80
2018-07-20T01:42:01.722Z,20.70
2018-07-20T01:44:30.986Z,20.70
2018-07-20T01:49:28.783Z,20.60
2018-07-20T01:51:59.389Z,20.60
2018-07-20T01:54:28.934Z,20.60
2018-07-20T02:02:04.556Z,20.40
2018-07-20T02:04:33.909Z,20.30
2018-07-20T02:09:32.289Z,20.20
2018-07-20T02:12:03.999Z,20.20
2018-07-20T02:14:33.220Z,20.10
2018-07-20T02:17:02.882Z,20.00
2018-07-20T02:19:32.857Z,20.00
2018-07-20T02:22:02.033Z,19.90
2018-07-20T02:24:31.113Z,19.90
2018-07-20T02:27:00.589Z,19.80
2018-07-20T02:29:35.432Z,19.80
2018-07-20T02:32:04.307Z,19.70
2018-07-20T02:34:34.284Z,19.70
2018-07-20T02:37:03.292Z,19.60
2018-07-20T02:39:33.193Z,19.60
2018-07-20T02:42:04.824Z,19.60
2018-07-20T02:44:33.789Z,19.50
2018-07-20T02:47:02.849Z,19.50
2018-07-20T02:49:31.960Z,19.50
2018-07-20T02:52:01.073Z,19.50
2018-07-20T02:54:30.176Z,19.40
2018-07-20T02:56:59.375Z,19.40
2018-07-20T02:59:32.849Z,19.50
2018-07-20T03:04:30.447Z,19.40
2018-07-20T03:06:59.735Z,19.40
2018-07-20T03:09:29.628Z,19.30
2018-07-20T03:11:59.165Z,19.40
2018-07-20T03:14:28.441Z,19.40
2018-07-20T03:16:57.354Z,19.40
2018-07-20T03:19:26.316Z,19.40
2018-07-20T03:21:55.423Z,19.40
2018-07-20T03:26:57.160Z,19.30
2018-07-20T03:29:26.371Z,19.30
2018-07-20T03:31:55.824Z,19.20
2018-07-20T03:34:25.489Z,19.20
2018-07-20T03:36:56.335Z,19.20
2018-07-20T03:39:25.525Z,19.20
2018-07-20T03:41:54.746Z,19.20
2018-07-20T03:49:22.151Z,19.20
2018-07-20T03:51:51.147Z,19.20
2018-07-20T03:54:21.039Z,19.20
2018-07-20T03:59:20.148Z,19.10
2018-07-20T04:01:49.472Z,19.20
2018-07-20T04:04:18.790Z,19.30
2018-07-20T04:06:48.174Z,19.40
2018-07-20T04:11:45.738Z,19.40
2018-07-20T04:14:15.779Z,19.40
2018-07-20T04:16:45.095Z,19.40
2018-07-20T04:19:14.230Z,19.40
2018-07-20T04:21:43.162Z,19.40
2018-07-20T04:24:12.073Z,19.40
2018-07-20T04:26:41.854Z,19.30
2018-07-20T04:29:11.755Z,19.30
2018-07-20T04:31:40.931Z,19.30
2018-07-20T04:34:11.147Z,19.20
2018-07-20T04:36:40.140Z,19.20
2018-07-20T04:39:12.327Z,19.10
2018-07-20T04:41:43.482Z,19.10
2018-07-20T04:44:13.775Z,19.10
2018-07-20T04:46:43.283Z,19.20
2018-07-20T04:49:12.288Z,19.20
2018-07-20T04:51:42.548Z,19.20
2018-07-20T04:54:11.515Z,19.20
2018-07-20T04:56:40.420Z,19.20
2018-07-20T04:59:09.384Z,19.20
2018-07-20T05:01:39.265Z,19.10
2018-07-20T05:04:09.497Z,19.00
2018-07-20T05:06:38.646Z,19.00
2018-07-20T05:09:09.500Z,18.90
2018-07-20T05:11:40.321Z,18.80
2018-07-20T05:14:09.777Z,18.80
2018-07-20T05:16:39.335Z,18.80
2018-07-20T05:21:40.149Z,18.80
2018-07-20T05:24:10.812Z,18.90
2018-07-20T05:26:40.395Z,19.00
2018-07-20T05:29:10.126Z,19.10
2018-07-20T05:31:41.667Z,19.10
2018-07-20T05:34:12.529Z,19.10
2018-07-20T05:36:41.781Z,19.10
2018-07-20T05:39:11.457Z,19.10
2018-07-20T05:41:40.362Z,19.10
2018-07-20T05:44:09.433Z,19.20
2018-07-20T05:46:38.610Z,19.20
2018-07-20T05:49:16.045Z,19.20
2018-07-20T05:51:45.171Z,19.20
2018-07-20T05:54:14.289Z,19.20
2018-07-20T05:56:43.864Z,19.20
2018-07-20T05:59:13.117Z,19.30
2018-07-20T06:01:43.052Z,19.30
2018-07-20T06:04:12.589Z,19.40
2018-07-20T06:06:42.134Z,19.60
2018-07-20T06:11:41.334Z,19.60
2018-07-20T06:14:10.469Z,19.80
2018-07-20T06:16:39.452Z,19.90
2018-07-20T06:19:08.750Z,19.90
2018-07-20T06:21:37.692Z,20.10
2018-07-20T06:24:17.113Z,20.60
2018-07-20T06:27:00.378Z,21.10
2018-07-20T06:29:30.143Z,21.40
2018-07-20T06:32:01.181Z,22.30
2018-07-20T06:34:30.230Z,23.30
2018-07-20T06:39:27.835Z,24.50
2018-07-20T06:44:25.334Z,24.90
2018-07-20T06:46:55.184Z,24.90
2018-07-20T06:49:24.792Z,24.50
2018-07-20T06:54:33.172Z,24.90
2018-07-20T06:57:15.433Z,25.30
2018-07-20T06:59:59.615Z,25.70
2018-07-20T07:02:31.190Z,25.90
2018-07-20T07:05:00.727Z,26.30
2018-07-20T07:07:30.294Z,26.40
2018-07-20T07:10:04.329Z,26.60
2018-07-20T07:12:33.409Z,26.90
2018-07-20T07:15:02.372Z,27.40
2018-07-20T07:17:31.575Z,27.50
2018-07-20T07:20:02.312Z,27.70
2018-07-20T07:22:31.757Z,27.30
2018-07-20T07:25:00.828Z,27.70
2018-07-20T07:27:30.130Z,27.50
2018-07-20T07:29:59.313Z,27.70
2018-07-20T07:32:29.035Z,28.00
2018-07-20T07:34:58.765Z,27.70
2018-07-20T07:37:29.159Z,28.60
2018-07-20T07:40:04.471Z,29.10
2018-07-20T07:42:34.326Z,29.60
2018-07-20T07:45:21.076Z,30.10
2018-07-20T07:47:52.986Z,29.60
2018-07-20T07:50:23.825Z,28.90
2018-07-20T07:52:54.987Z,29.30
2018-07-20T07:55:25.757Z,28.20
2018-07-20T07:58:01.190Z,27.80
2018-07-20T08:00:30.642Z,28.90
2018-07-20T08:03:04.690Z,29.60
2018-07-20T08:05:34.395Z,30.30
2018-07-20T08:08:20.254Z,29.80
2018-07-20T08:11:02.301Z,29.90
2018-07-20T08:13:32.003Z,29.50
2018-07-20T08:16:01.650Z,29.20
2018-07-20T08:18:33.627Z,28.50
2018-07-20T08:21:02.773Z,28.20
2018-07-20T08:23:33.198Z,27.70
2018-07-20T08:26:02.610Z,27.90
2018-07-20T08:28:32.382Z,27.70
2018-07-20T08:31:01.738Z,27.60
2018-07-20T08:33:31.112Z,28.90
2018-07-20T08:36:16.711Z,29.80
2018-07-20T08:38:46.041Z,30.50
2018-07-20T08:41:15.253Z,29.90
2018-07-20T08:43:44.446Z,29.10
2018-07-20T08:46:14.187Z,29.60
2018-07-20T08:48:44.234Z,30.60
2018-07-20T08:51:16.376Z,30.60
2018-07-20T08:53:47.523Z,30.80
2018-07-20T08:56:16.432Z,31.70
2018-07-20T08:58:48.016Z,32.50
2018-07-20T09:01:19.396Z,32.60
2018-07-20T09:03:48.998Z,32.60
2018-07-20T09:08:47.290Z,32.30
2018-07-20T09:11:16.581Z,32.80
2018-07-20T09:13:47.432Z,33.70
2018-07-20T09:16:17.855Z,33.50
2018-07-20T09:18:48.517Z,33.00
2018-07-20T09:21:21.747Z,32.30
2018-07-20T09:23:54.051Z,31.90
2018-07-20T09:28:52.755Z,33.00
2018-07-20T09:33:52.710Z,32.90
2018-07-20T09:36:53.740Z,32.70
2018-07-20T09:39:23.533Z,32.00
2018-07-20T09:41:55.838Z,31.80
2018-07-20T09:44:25.833Z,32.10
2018-07-20T09:46:55.720Z,33.00
2018-07-20T09:49:25.211Z,34.50
2018-07-20T09:51:58.205Z,36.00
2018-07-20T09:54:29.157Z,37.10
2018-07-20T09:57:00.073Z,37.60
2018-07-20T09:59:29.649Z,38.00
2018-07-20T10:01:59.894Z,38.20
2018-07-20T10:04:29.617Z,37.80
2018-07-20T10:06:59.800Z,37.30
2018-07-20T10:09:30.146Z,37.30
2018-07-20T10:14:40.502Z,38.70
2018-07-20T10:17:10.304Z,38.50
2018-07-20T10:19:39.584Z,37.80
2018-07-20T10:22:09.818Z,38.10
2018-07-20T10:27:22.439Z,37.90
2018-07-20T10:29:52.450Z,37.40
2018-07-20T10:32:23.239Z,37.10
2018-07-20T10:35:01.377Z,37.00
2018-07-20T10:37:36.792Z,36.50
2018-07-20T10:40:08.421Z,36.00
2018-07-20T10:42:47.772Z,36.00
2018-07-20T10:45:17.029Z,36.30
2018-07-20T10:47:46.507Z,36.20
2018-07-20T10:50:17.168Z,36.60
2018-07-20T10:52:49.674Z,37.40
2018-07-20T10:55:20.806Z,38.10
2018-07-20T11:00:19.281Z,38.60
2018-07-20T11:02:49.173Z,38.70
2018-07-20T11:07:45.206Z,38.80
2018-07-20T11:10:18.890Z,39.50
2018-07-20T11:12:49.593Z,39.20
2018-07-20T11:17:53.660Z,38.20
2018-07-20T11:20:23.670Z,37.80
2018-07-20T11:25:28.473Z,38.70
2018-07-20T11:28:02.614Z,39.30
2018-07-20T11:30:34.288Z,39.80
2018-07-20T11:33:05.957Z,40.70
2018-07-20T11:35:38.260Z,41.40
2018-07-20T11:38:10.572Z,41.40
2018-07-20T11:40:53.180Z,40.30
2018-07-20T11:43:31.123Z,39.90
2018-07-20T11:46:00.735Z,38.20
2018-07-20T11:48:32.204Z,37.90
2018-07-20T11:51:03.379Z,38.60
2018-07-20T11:53:41.303Z,38.10
2018-07-20T11:56:17.852Z,38.80
2018-07-20T11:58:49.378Z,38.70
2018-07-20T12:01:23.358Z,38.80
2018-07-20T12:04:05.679Z,38.50
2018-07-20T12:06:53.506Z,37.80
2018-07-20T12:09:25.205Z,37.40
2018-07-20T12:11:55.086Z,37.80
2018-07-20T12:14:28.624Z,38.00
2018-07-20T12:16:58.777Z,37.70
2018-07-20T12:19:27.931Z,37.70
2018-07-20T12:22:00.799Z,38.50
2018-07-20T12:24:45.179Z,39.60
2018-07-20T12:27:16.466Z,39.90
2018-07-20T12:29:45.833Z,40.10
2018-07-20T12:32:15.770Z,40.30
2018-07-20T12:34:45.580Z,40.10
2018-07-20T12:37:31.663Z,39.10
2018-07-20T12:40:01.173Z,38.40
2018-07-20T12:42:31.214Z,38.70
2018-07-20T12:45:00.568Z,38.20
2018-07-20T12:47:29.929Z,38.40
2018-07-20T12:50:03.415Z,39.00
2018-07-20T12:52:33.292Z,39.40
2018-07-20T12:55:03.323Z,38.60
2018-07-20T12:57:32.507Z,38.10
2018-07-20T13:00:02.034Z,38.20
2018-07-20T13:02:32.151Z,39.30
2018-07-20T13:05:01.338Z,39.60
2018-07-20T13:07:31.310Z,38.80
2018-07-20T13:10:03.203Z,37.60
2018-07-20T13:12:35.795Z,37.60
2018-07-20T13:15:05.810Z,36.80
2018-07-20T13:17:35.237Z,36.10
2018-07-20T13:20:04.667Z,35.00
2018-07-20T13:22:33.703Z,35.00
2018-07-20T13:25:03.796Z,35.30
2018-07-20T13:27:33.117Z,35.50
2018-07-20T13:30:02.825Z,36.10
2018-07-20T13:32:32.816Z,36.10
2018-07-20T13:35:02.108Z,35.20
2018-07-20T13:37:43.154Z,34.20
2018-07-20T13:40:13.326Z,33.80
2018-07-20T13:42:43.184Z,33.40
2018-07-20T13:45:14.160Z,33.00
2018-07-20T13:47:44.494Z,32.20
2018-07-20T13:50:17.169Z,31.80
2018-07-20T13:52:50.253Z,32.00
2018-07-20T13:55:20.764Z,32.30
2018-07-20T13:57:51.774Z,32.80
2018-07-20T14:00:22.104Z,32.80
2018-07-20T14:02:57.466Z,33.00
2018-07-20T14:05:28.725Z,33.00
2018-07-20T14:07:59.817Z,32.50
2018-07-20T14:10:30.446Z,32.40
2018-07-20T14:13:02.561Z,32.80
2018-07-20T14:15:37.854Z,33.10
2018-07-20T14:18:14.221Z,33.00
2018-07-20T14:23:31.644Z,32.80
2018-07-20T14:26:01.756Z,32.80
2018-07-20T14:28:38.551Z,32.40
2018-07-20T14:31:10.867Z,32.20
2018-07-20T14:33:47.671Z,32.40
2018-07-20T14:36:19.451Z,32.60
2018-07-20T14:38:51.974Z,32.60
2018-07-20T14:41:29.078Z,32.50
2018-07-20T14:44:00.452Z,32.40
2018-07-20T14:46:31.888Z,32.50
2018-07-20T14:51:27.422Z,32.60
2018-07-20T14:53:58.612Z,32.00
2018-07-20T14:56:30.116Z,31.90
2018-07-20T14:59:07.520Z,32.00
2018-07-20T15:01:36.682Z,32.30
2018-07-20T15:04:09.421Z,32.30
2018-07-20T15:06:44.335Z,32.40
2018-07-20T15:09:20.648Z,31.90
2018-07-20T15:11:55.449Z,31.80
2018-07-20T15:14:27.882Z,31.80
2018-07-20T15:17:00.305Z,31.30
2018-07-20T15:19:32.228Z,31.50
2018-07-20T15:22:02.249Z,31.90
2018-07-20T15:24:33.285Z,32.10
2018-07-20T15:27:05.444Z,32.10
2018-07-20T15:29:36.311Z,31.60
2018-07-20T15:32:16.575Z,31.40
2018-07-20T15:34:55.793Z,31.60
2018-07-20T15:37:28.833Z,31.90
2018-07-20T15:40:00.159Z,31.90
2018-07-20T15:42:32.340Z,31.80
2018-07-20T15:45:08.260Z,31.40
2018-07-20T15:47:54.270Z,31.10
2018-07-20T15:50:46.765Z,31.10
2018-07-20T15:53:36.279Z,31.10
2018-07-20T15:56:02.727Z,31.30
2018-07-20T15:58:37.785Z,31.20
2018-07-20T16:01:09.856Z,31.10
2018-07-20T16:03:44.298Z,30.80
2018-07-20T16:06:17.073Z,30.80
2018-07-20T16:08:48.459Z,30.80
2018-07-20T16:11:19.926Z,30.80
2018-07-20T16:13:54.763Z,30.70
2018-07-20T16:16:24.613Z,30.70
2018-07-20T16:18:59.197Z,30.80
2018-07-20T16:21:39.361Z,30.60
2018-07-20T16:24:18.435Z,30.50
2018-07-20T16:26:49.965Z,30.50
2018-07-20T16:29:20.107Z,30.50
2018-07-20T16:31:54.532Z,30.50
2018-07-20T16:34:27.708Z,30.70
2018-07-20T16:36:56.870Z,30.80
2018-07-20T16:39:38.338Z,30.70
2018-07-20T16:42:17.795Z,30.70
2018-07-20T16:44:54.215Z,30.50
2018-07-20T16:47:25.454Z,30.40
2018-07-20T16:49:59.176Z,30.40
2018-07-20T16:52:34.029Z,30.30
2018-07-20T16:55:08.349Z,30.40
2018-07-20T16:57:39.392Z,30.30
2018-07-20T17:00:10.646Z,30.20
2018-07-20T17:02:42.278Z,30.10
2018-07-20T17:05:14.242Z,30.10
2018-07-20T17:07:47.191Z,30.10
2018-07-20T17:10:18.482Z,30.00
2018-07-20T17:13:51.201Z,29.90
2018-07-20T17:16:21.331Z,29.90
2018-07-20T17:18:53.702Z,29.70
2018-07-20T17:21:25.232Z,29.60
2018-07-20T17:23:55.680Z,29.50
2018-07-20T17:26:25.424Z,29.40
2018-07-20T17:28:55.754Z,29.20
2018-07-20T17:31:28.944Z,29.20
2018-07-20T17:33:59.734Z,29.20
2018-07-20T17:36:31.504Z,29.10
2018-07-20T17:39:00.828Z,28.90
2018-07-20T17:41:37.523Z,28.80
2018-07-20T17:44:13.457Z,28.70
2018-07-20T17:46:43.402Z,28.80
2018-07-20T17:49:13.164Z,28.70
2018-07-20T17:51:46.213Z,28.60
2018-07-20T17:54:23.880Z,28.60
2018-07-20T17:56:54.802Z,28.60
2018-07-20T17:59:25.762Z,28.30
2018-07-20T18:01:57.273Z,28.20
2018-07-20T18:04:28.144Z,27.90
2018-07-20T18:07:12.872Z,27.60
2018-07-20T18:09:44.407Z,27.00
2018-07-20T18:12:15.785Z,26.50
2018-07-20T18:14:53.141Z,26.00
2018-07-20T18:17:24.132Z,25.70
2018-07-20T18:19:55.252Z,25.40
2018-07-20T18:22:25.953Z,25.00
2018-07-20T18:24:56.900Z,24.60
2018-07-20T18:27:27.262Z,24.20
2018-07-20T18:30:00.231Z,24.10
2018-07-20T18:32:33.592Z,24.00
2018-07-20T18:35:05.083Z,24.10
2018-07-20T18:37:39.191Z,24.20
2018-07-20T18:40:11.242Z,24.30
2018-07-20T18:42:42.123Z,24.50
2018-07-20T18:45:12.805Z,24.80
2018-07-20T18:47:43.029Z,25.00
2018-07-20T18:50:12.617Z,25.10
2018-07-20T18:52:44.793Z,25.30
2018-07-20T18:55:15.782Z,25.30
2018-07-20T19:00:41.471Z,25.60
2018-07-20T19:03:26.148Z,25.60
2018-07-20T19:05:58.724Z,25.70
2018-07-20T19:08:32.700Z,25.90
2018-07-20T19:11:06.099Z,25.90
2018-07-20T19:13:37.540Z,25.90
2018-07-20T19:16:10.552Z,26.00
2018-07-20T19:18:49.077Z,26.00
2018-07-20T19:21:22.995Z,26.00
2018-07-20T19:24:05.715Z,26.00
2018-07-20T19:26:51.165Z,26.20
2018-07-20T19:29:30.249Z,26.30
2018-07-20T19:32:08.055Z,26.50
2018-07-20T19:34:39.661Z,26.30
2018-07-20T19:37:13.187Z,26.20
2018-07-20T19:39:43.217Z,26.30
2018-07-20T19:42:23.339Z,26.40
2018-07-20T19:44:53.940Z,26.40
2018-07-20T19:47:25.578Z,26.30
2018-07-20T19:50:01.368Z,26.40
2018-07-20T19:52:40.568Z,26.50
2018-07-20T19:55:27.209Z,26.60
2018-07-20T19:57:57.567Z,26.50
2018-07-20T20:00:39.968Z,26.50
2018-07-20T20:03:22.425Z,26.50
2018-07-20T20:06:09.353Z,26.30
2018-07-20T20:08:56.184Z,26.20
2018-07-20T20:11:30.504Z,26.20
2018-07-20T20:14:05.083Z,26.20
2018-07-20T20:16:38.045Z,26.20
2018-07-20T20:19:08.797Z,26.20
2018-07-20T20:21:39.316Z,26.30
2018-07-20T20:24:18.738Z,26.40
2018-07-20T20:26:50.601Z,26.50
2018-07-20T20:29:21.173Z,26.50
2018-07-20T20:31:55.245Z,26.50
2018-07-20T20:34:24.785Z,26.40
2018-07-20T20:40:25.651Z,26.40
2018-07-20T20:43:06.970Z,26.50
2018-07-20T20:45:40.451Z,26.50
2018-07-20T20:48:14.779Z,26.10
2018-07-20T20:50:46.193Z,26.00
2018-07-20T20:53:26.193Z,26.00
2018-07-20T20:56:06.652Z,25.80
2018-07-20T20:58:41.562Z,25.80
2018-07-20T21:01:13.228Z,25.90
2018-07-20T21:03:43.235Z,25.80
2018-07-20T21:06:12.730Z,25.90
2018-07-20T21:08:42.848Z,25.80
2018-07-20T21:11:12.355Z,25.80
2018-07-20T21:14:02.151Z,25.80
2018-07-20T21:16:38.601Z,25.80
2018-07-20T21:19:18.310Z,25.70
2018-07-20T21:21:49.393Z,25.50
2018-07-20T21:24:29.075Z,25.40
2018-07-20T21:27:06.062Z,25.40
2018-07-20T21:29:49.736Z,25.30
2018-07-20T21:32:43.194Z,25.30
2018-07-20T21:35:38.716Z,25.20
2018-07-20T21:38:21.579Z,25.10
2018-07-20T21:41:22.367Z,24.90
2018-07-20T21:44:08.252Z,24.80
2018-07-20T21:47:02.669Z,24.70
2018-07-20T21:49:58.535Z,24.70
2018-07-20T21:52:46.742Z,24.60
2018-07-20T21:55:17.676Z,24.60
2018-07-20T21:58:09.963Z,24.70
2018-07-20T22:01:10.969Z,24.70
2018-07-20T22:03:45.585Z,24.50
2018-07-20T22:06:40.204Z,24.40
2018-07-20T22:09:17.504Z,24.40
2018-07-20T22:11:49.722Z,24.30
2018-07-20T22:14:19.227Z,24.20
2018-07-20T22:16:58.478Z,24.10
2018-07-20T22:19:44.348Z,24.10
2018-07-20T22:22:29.400Z,24.10
2018-07-20T22:27:57.435Z,24.20
2018-07-20T22:33:52.788Z,24.20
2018-07-20T22:36:26.457Z,24.20
2018-07-20T22:39:24.046Z,24.20
2018-07-20T22:42:04.107Z,24.10
2018-07-20T22:44:44.847Z,24.00
2018-07-20T22:47:22.213Z,24.00
2018-07-20T22:49:54.414Z,23.90
2018-07-20T22:52:24.042Z,23.90
2018-07-20T22:54:59.276Z,23.90
2018-07-20T22:57:31.180Z,23.90
2018-07-20T23:00:07.033Z,23.90
2018-07-20T23:02:36.258Z,23.90
2018-07-20T23:05:09.943Z,23.90
2018-07-20T23:07:41.075Z,23.80
2018-07-20T23:10:16.084Z,23.80
2018-07-20T23:12:50.985Z,23.90
2018-07-20T23:15:32.828Z,23.90
2018-07-20T23:18:14.677Z,23.90
2018-07-20T23:20:45.405Z,23.70
2018-07-20T23:23:22.544Z,23.60
2018-07-20T23:25:56.254Z,23.60
2018-07-20T23:28:25.799Z,23.60
2018-07-20T23:31:17.970Z,23.60
2018-07-20T23:33:47.184Z,23.60
2018-07-20T23:36:42.086Z,23.50
2018-07-20T23:39:23.088Z,23.40
2018-07-20T23:45:07.274Z,23.40
2018-07-20T23:48:11.592Z,23.40
2018-07-20T23:50:47.753Z,23.40
2018-07-20T23:53:17.800Z,23.40
2018-07-20T23:56:03.226Z,23.40
2018-07-20T23:58:50.593Z,23.40
